Time;durP1;ratioP1;P1;durP2;ratioP2;P2;SDS_P1;SDS_P2;PMS_P1;PMS_P2;Temp;Humidity;BMP_temperature;BMP_pressure;BME280_temperature;BME280_humidity;BME280_pressure;Samples;Min_cycle;Max_cycle;Signal;HPM_P1;HPM_P2
2021/03/30 00:00:51;;;;;;;;;;;23.40;34.30;;;;;;1604087;73;768;-62
2021/03/30 00:02:53;;;;;;;;;;;23.40;34.40;;;;;;1597982;74;1938;-62
2021/03/30 00:04:55;;;;;;;;;;;23.30;34.40;;;;;;1599936;72;820;-61
2021/03/30 00:06:57;;;;;;;;;;;23.40;34.60;;;;;;1607768;73;1157;-62
2021/03/30 00:08:59;;;;;;;;;;;23.40;34.40;;;;;;1594698;72;756;-63
2021/03/30 00:11:01;;;;;;;;;;;23.40;34.40;;;;;;1560105;74;769;-63
2021/03/30 00:13:03;;;;;;;;;;;23.40;34.40;;;;;;1611708;72;743;-62
2021/03/30 00:15:05;;;;;;;;;;;23.40;34.40;;;;;;1602962;74;687;-64
2021/03/30 00:17:07;;;;;;;;;;;23.50;34.60;;;;;;1595822;74;1164;-63
2021/03/30 00:19:09;;;;;;;;;;;23.50;34.60;;;;;;1600730;74;769;-63
2021/03/30 00:21:11;;;;;;;;;;;23.40;34.40;;;;;;1605454;72;763;-63
2021/03/30 00:23:13;;;;;;;;;;;23.40;34.40;;;;;;1615383;72;1943;-62
2021/03/30 00:25:15;;;;;;;;;;;23.40;34.50;;;;;;1598729;73;818;-61
2021/03/30 00:27:17;;;;;;;;;;;23.40;34.50;;;;;;1604773;72;1162;-62
2021/03/30 00:29:19;;;;;;;;;;;23.40;34.60;;;;;;1604418;74;750;-63
2021/03/30 00:31:21;;;;;;;;;;;23.50;34.80;;;;;;1600281;72;748;-62
2021/03/30 00:33:23;;;;;;;;;;;23.50;34.70;;;;;;1594222;72;798;-61
2021/03/30 00:35:24;;;;;;;;;;;23.40;34.60;;;;;;1585419;72;739;-62
2021/03/30 00:37:26;;;;;;;;;;;23.40;34.60;;;;;;1589640;72;1159;-59
2021/03/30 00:39:28;;;;;;;;;;;23.40;34.70;;;;;;1595888;72;772;-64
2021/03/30 00:41:30;;;;;;;;;;;23.40;34.70;;;;;;1597148;72;740;-64
2021/03/30 00:43:32;;;;;;;;;;;23.40;34.60;;;;;;1588780;72;1940;-64
2021/03/30 00:45:34;;;;;;;;;;;23.50;34.80;;;;;;1592654;72;747;-62
2021/03/30 00:47:36;;;;;;;;;;;23.50;34.80;;;;;;1592935;72;1172;-64
2021/03/30 00:49:38;;;;;;;;;;;23.40;34.50;;;;;;1591734;72;778;-64
2021/03/30 00:51:40;;;;;;;;;;;23.50;34.80;;;;;;1588034;73;823;-60
2021/03/30 00:53:42;;;;;;;;;;;23.50;34.70;;;;;;1587749;73;694;-64
2021/03/30 00:55:44;;;;;;;;;;;23.40;34.70;;;;;;1581447;72;689;-63
2021/03/30 00:57:46;;;;;;;;;;;23.50;34.80;;;;;;1583347;73;1224;-63
2021/03/30 00:59:47;;;;;;;;;;;23.40;35.00;;;;;;1580650;73;768;-62
2021/03/30 01:01:49;;;;;;;;;;;23.40;34.80;;;;;;1584912;72;730;-63
2021/03/30 01:03:51;;;;;;;;;;;23.30;34.90;;;;;;1577552;73;1940;-62
2021/03/30 01:05:53;;;;;;;;;;;23.50;35.10;;;;;;1580040;73;793;-63
2021/03/30 01:08:13;;;;;;;;;;;23.40;34.90;;;;;;1579881;72;1142;-62
2021/03/30 01:10:19;;;;;;;;;;;23.40;34.90;;;;;;1578216;72;771;-63
2021/03/30 01:12:31;;;;;;;;;;;23.40;34.90;;;;;;1590257;72;804;-63
2021/03/30 01:14:51;;;;;;;;;;;23.40;34.90;;;;;;1578716;73;754;-63
2021/03/30 01:16:55;;;;;;;;;;;23.40;34.90;;;;;;1583731;73;1184;-63
2021/03/30 01:19:15;;;;;;;;;;;23.40;35.00;;;;;;1582572;73;785;-63
2021/03/30 01:21:18;;;;;;;;;;;23.40;35.10;;;;;;1583558;73;726;-63
2021/03/30 01:23:37;;;;;;;;;;;23.40;35.30;;;;;;1580254;73;1932;-65
2021/03/30 01:25:39;;;;;;;;;;;23.50;35.40;;;;;;1585016;73;720;-64
2021/03/30 01:28:00;;;;;;;;;;;23.40;35.30;;;;;;1582208;73;1179;-64
2021/03/30 01:30:02;;;;;;;;;;;23.40;35.30;;;;;;1584514;73;777;-64
2021/03/30 01:32:04;;;;;;;;;;;23.40;35.20;;;;;;1581869;72;757;-61
2021/03/30 01:34:06;;;;;;;;;;;23.40;35.30;;;;;;1542403;75;747;-63
2021/03/30 01:36:08;;;;;;;;;;;23.40;35.30;;;;;;1575264;73;773;-64
2021/03/30 01:38:11;;;;;;;;;;;23.40;35.20;;;;;;1581791;73;1149;-63
2021/03/30 01:40:14;;;;;;;;;;;23.40;35.40;;;;;;1585980;73;805;-63
2021/03/30 01:42:17;;;;;;;;;;;23.40;35.40;;;;;;1585098;73;799;-61
2021/03/30 01:44:19;;;;;;;;;;;23.40;35.40;;;;;;1581264;72;1934;-63
2021/03/30 01:46:21;;;;;;;;;;;23.50;35.50;;;;;;1585459;73;1154;-64
2021/03/30 01:48:23;;;;;;;;;;;23.40;35.20;;;;;;1582140;73;818;-67
2021/03/30 01:50:25;;;;;;;;;;;23.40;35.30;;;;;;1589323;73;717;-60
2021/03/30 01:52:27;;;;;;;;;;;23.40;35.30;;;;;;1583951;73;675;-63
2021/03/30 01:54:29;;;;;;;;;;;23.40;35.40;;;;;;1586726;73;767;-62
2021/03/30 01:56:31;;;;;;;;;;;23.40;35.30;;;;;;1595887;73;1241;-63
2021/03/30 01:58:33;;;;;;;;;;;23.40;35.50;;;;;;1587698;73;749;-62
2021/03/30 02:00:35;;;;;;;;;;;23.30;35.40;;;;;;1592238;73;790;-62
2021/03/30 02:02:37;;;;;;;;;;;23.40;35.30;;;;;;1594451;73;978;-62
2021/03/30 02:04:39;;;;;;;;;;;23.50;35.50;;;;;;1583411;73;1933;-63
2021/03/30 02:06:42;;;;;;;;;;;23.40;35.40;;;;;;1591213;72;1271;-62
2021/03/30 02:08:44;;;;;;;;;;;23.40;35.30;;;;;;1582703;73;635;-62
2021/03/30 02:10:50;;;;;;;;;;;23.40;35.20;;;;;;1582868;72;759;-62
2021/03/30 02:12:50;;;;;;;;;;;23.40;35.10;;;;;;1580807;72;1567;-62
2021/03/30 02:14:52;;;;;;;;;;;23.40;35.10;;;;;;1577942;73;646;-62
2021/03/30 02:16:55;;;;;;;;;;;23.30;35.20;;;;;;1578855;73;1178;-62
2021/03/30 02:19:12;;;;;;;;;;;23.40;35.30;;;;;;1581430;73;693;-65
2021/03/30 02:21:15;;;;;;;;;;;23.40;35.10;;;;;;1575489;72;766;-64
2021/03/30 02:23:19;;;;;;;;;;;23.40;35.20;;;;;;1577201;73;1968;-61
2021/03/30 02:25:21;;;;;;;;;;;23.40;35.10;;;;;;1575890;73;1470;-61
2021/03/30 02:27:23;;;;;;;;;;;23.40;35.30;;;;;;1579277;72;1188;-63
2021/03/30 02:29:27;;;;;;;;;;;23.50;35.30;;;;;;1579047;73;755;-62
2021/03/30 02:31:29;;;;;;;;;;;23.40;35.20;;;;;;1578779;74;762;-63
2021/03/30 02:33:31;;;;;;;;;;;23.40;35.20;;;;;;1581368;72;758;-64
2021/03/30 02:35:33;;;;;;;;;;;23.40;35.30;;;;;;1548268;76;764;-64
2021/03/30 02:37:35;;;;;;;;;;;23.40;35.40;;;;;;1586632;73;1215;-64
2021/03/30 02:39:37;;;;;;;;;;;23.40;35.50;;;;;;1581989;73;808;-65
2021/03/30 02:41:39;;;;;;;;;;;23.30;35.50;;;;;;1595741;73;744;-64
2021/03/30 02:43:41;;;;;;;;;;;23.30;35.50;;;;;;1598432;73;1945;-65
2021/03/30 02:45:43;;;;;;;;;;;23.30;35.50;;;;;;1597479;73;765;-64
2021/03/30 02:47:45;;;;;;;;;;;23.20;35.60;;;;;;1588863;73;1166;-63
2021/03/30 02:49:46;;;;;;;;;;;23.30;35.70;;;;;;1594335;74;801;-63
2021/03/30 02:51:49;;;;;;;;;;;23.30;35.90;;;;;;1587949;73;915;-61
2021/03/30 02:53:51;;;;;;;;;;;23.20;35.90;;;;;;1582910;73;744;-65
2021/03/30 02:55:53;;;;;;;;;;;23.10;36.00;;;;;;1591688;73;732;-64
2021/03/30 02:57:55;;;;;;;;;;;23.20;36.30;;;;;;1595579;73;1198;-64
2021/03/30 02:59:57;;;;;;;;;;;23.10;36.40;;;;;;1597553;74;752;-65
2021/03/30 03:01:59;;;;;;;;;;;23.00;36.30;;;;;;1595131;74;802;-62
2021/03/30 03:04:01;;;;;;;;;;;23.00;36.50;;;;;;1594824;73;1936;-66
2021/03/30 03:06:03;;;;;;;;;;;23.00;36.50;;;;;;1595811;73;729;-63
2021/03/30 03:08:08;;;;;;;;;;;23.00;36.50;;;;;;1590843;73;1118;-63
2021/03/30 03:10:10;;;;;;;;;;;23.00;36.50;;;;;;1594942;73;763;-63
2021/03/30 03:12:12;;;;;;;;;;;23.00;36.70;;;;;;1592400;73;994;-64
2021/03/30 03:14:14;;;;;;;;;;;23.00;36.70;;;;;;1592265;74;803;-64
2021/03/30 03:16:16;;;;;;;;;;;22.90;36.80;;;;;;1595284;74;1174;-61
2021/03/30 03:18:18;;;;;;;;;;;22.90;36.70;;;;;;1596707;73;725;-64
2021/03/30 03:20:20;;;;;;;;;;;22.90;36.70;;;;;;1598743;74;745;-64
2021/03/30 03:22:22;;;;;;;;;;;22.90;36.80;;;;;;1594029;73;751;-65
2021/03/30 03:24:23;;;;;;;;;;;22.90;36.80;;;;;;1596972;73;1945;-62
2021/03/30 03:26:25;;;;;;;;;;;22.90;36.70;;;;;;1597422;74;1178;-66
2021/03/30 03:28:27;;;;;;;;;;;22.90;36.70;;;;;;1597952;73;794;-64
2021/03/30 03:30:29;;;;;;;;;;;23.00;36.70;;;;;;1597979;73;744;-64
2021/03/30 03:32:31;;;;;;;;;;;22.90;36.70;;;;;;1596967;73;755;-64
2021/03/30 03:34:33;;;;;;;;;;;22.90;36.70;;;;;;1588887;74;673;-63
2021/03/30 03:36:42;;;;;;;;;;;22.90;36.60;;;;;;1593240;73;1175;-63
2021/03/30 03:38:44;;;;;;;;;;;23.00;36.50;;;;;;1595806;74;1187;-63
2021/03/30 03:40:46;;;;;;;;;;;23.00;36.40;;;;;;1594083;74;768;-63
2021/03/30 03:42:48;;;;;;;;;;;23.00;36.40;;;;;;1595214;73;756;-63
2021/03/30 03:44:50;;;;;;;;;;;23.00;36.40;;;;;;1581610;73;1928;-63
2021/03/30 03:46:52;;;;;;;;;;;23.00;36.20;;;;;;1585681;70;213213;-64
2021/03/30 03:48:54;;;;;;;;;;;23.00;36.20;;;;;;1590223;74;711;-65
2021/03/30 03:50:57;;;;;;;;;;;23.10;36.00;;;;;;1588235;74;749;-64
2021/03/30 03:52:59;;;;;;;;;;;23.20;35.80;;;;;;1585658;74;802;-64
2021/03/30 03:55:01;;;;;;;;;;;23.30;35.70;;;;;;1584363;74;684;-65
2021/03/30 03:57:07;;;;;;;;;;;23.40;35.50;;;;;;1587726;74;1368;-65
2021/03/30 03:59:14;;;;;;;;;;;23.40;35.30;;;;;;1573308;74;1343;-64
2021/03/30 04:01:18;;;;;;;;;;;23.40;35.20;;;;;;1572489;74;750;-63
2021/03/30 04:03:24;;;;;;;;;;;23.40;35.20;;;;;;1576195;74;801;-64
2021/03/30 04:05:27;;;;;;;;;;;23.40;35.20;;;;;;1574063;74;781;-64
2021/03/30 04:07:47;;;;;;;;;;;23.40;35.20;;;;;;1572632;74;1167;-66
2021/03/30 04:09:52;;;;;;;;;;;23.40;35.10;;;;;;1567225;74;781;-66
2021/03/30 04:11:53;;;;;;;;;;;23.50;35.10;;;;;;1574663;74;766;-65
2021/03/30 04:13:56;;;;;;;;;;;23.50;35.20;;;;;;1569102;74;730;-67
2021/03/30 04:16:02;;;;;;;;;;;23.50;35.20;;;;;;1577423;74;780;-65
2021/03/30 04:18:06;;;;;;;;;;;23.50;35.10;;;;;;1571990;74;1151;-63
2021/03/30 04:20:09;;;;;;;;;;;23.50;35.20;;;;;;1571231;74;756;-65
2021/03/30 04:22:13;;;;;;;;;;;23.50;35.10;;;;;;1562423;74;759;-65
2021/03/30 04:24:15;;;;;;;;;;;23.50;35.10;;;;;;1554232;74;1939;-66
2021/03/30 04:26:16;;;;;;;;;;;23.50;35.20;;;;;;1553978;74;844;-66
2021/03/30 04:28:18;;;;;;;;;;;23.50;35.20;;;;;;1567373;74;1171;-65
2021/03/30 04:30:20;;;;;;;;;;;23.40;35.00;;;;;;1553018;74;682;-66
2021/03/30 04:32:22;;;;;;;;;;;23.40;35.10;;;;;;1565650;74;772;-65
2021/03/30 04:34:24;;;;;;;;;;;23.40;35.00;;;;;;1558958;74;713;-65
2021/03/30 04:36:26;;;;;;;;;;;23.40;35.00;;;;;;1569059;74;803;-66
2021/03/30 04:38:28;;;;;;;;;;;23.40;35.00;;;;;;1560220;74;1084;-68
2021/03/30 04:40:30;;;;;;;;;;;23.40;35.00;;;;;;1558711;75;824;-69
2021/03/30 04:42:32;;;;;;;;;;;23.40;35.00;;;;;;1572132;74;821;-68
2021/03/30 04:44:34;;;;;;;;;;;23.40;35.00;;;;;;1572331;74;1941;-67
2021/03/30 04:46:35;;;;;;;;;;;23.40;35.00;;;;;;1573086;74;1194;-66
2021/03/30 04:48:38;;;;;;;;;;;23.40;35.00;;;;;;1574665;74;799;-65
2021/03/30 04:50:40;;;;;;;;;;;23.40;35.00;;;;;;1574706;74;752;-65
2021/03/30 04:52:42;;;;;;;;;;;23.40;35.10;;;;;;1585052;74;752;-65
2021/03/30 04:54:44;;;;;;;;;;;23.40;34.90;;;;;;1575298;74;773;-65
2021/03/30 04:56:46;;;;;;;;;;;23.50;35.10;;;;;;1572747;74;1170;-65
2021/03/30 04:58:48;;;;;;;;;;;23.40;35.00;;;;;;1579176;74;738;-66
2021/03/30 05:00:50;;;;;;;;;;;23.50;35.10;;;;;;1577004;74;755;-65
2021/03/30 05:02:51;;;;;;;;;;;23.40;35.10;;;;;;1576099;74;768;-65
2021/03/30 05:04:54;;;;;;;;;;;23.40;35.20;;;;;;1574337;74;1946;-68
2021/03/30 05:06:56;;;;;;;;;;;23.30;35.40;;;;;;1574746;74;1167;-67
2021/03/30 05:08:58;;;;;;;;;;;23.30;35.40;;;;;;1575777;74;811;-65
2021/03/30 05:11:00;;;;;;;;;;;23.30;35.50;;;;;;1576069;74;817;-66
2021/03/30 05:13:02;;;;;;;;;;;23.30;35.50;;;;;;1572682;74;834;-66
2021/03/30 05:15:04;;;;;;;;;;;23.40;35.60;;;;;;1572973;74;778;-63
2021/03/30 05:17:06;;;;;;;;;;;23.40;35.50;;;;;;1563129;74;1231;-65
2021/03/30 05:19:08;;;;;;;;;;;23.40;35.50;;;;;;1571891;74;808;-66
2021/03/30 05:21:09;;;;;;;;;;;23.20;35.40;;;;;;1562843;74;778;-64
2021/03/30 05:23:11;;;;;;;;;;;23.30;35.70;;;;;;1568783;74;749;-63
2021/03/30 05:25:14;;;;;;;;;;;23.20;36.00;;;;;;1565080;74;1943;-63
2021/03/30 05:27:15;;;;;;;;;;;23.20;36.00;;;;;;1571541;74;1160;-60
2021/03/30 05:29:17;;;;;;;;;;;23.20;35.70;;;;;;1566912;74;761;-61
2021/03/30 05:31:19;;;;;;;;;;;23.20;35.00;;;;;;1577157;74;735;-62
2021/03/30 05:33:21;;;;;;;;;;;23.10;34.60;;;;;;1574073;74;771;-63
2021/03/30 05:35:23;;;;;;;;;;;23.10;35.00;;;;;;1575697;74;666;-62
2021/03/30 05:37:25;;;;;;;;;;;23.10;34.90;;;;;;1572364;74;1160;-63
2021/03/30 05:39:27;;;;;;;;;;;23.10;35.00;;;;;;1577417;74;752;-62
2021/03/30 05:41:28;;;;;;;;;;;23.00;34.80;;;;;;1574207;74;757;-63
2021/03/30 05:43:30;;;;;;;;;;;22.90;34.90;;;;;;1571427;74;799;-63
2021/03/30 05:45:32;;;;;;;;;;;22.90;34.80;;;;;;1575678;74;1946;-62
2021/03/30 05:47:35;;;;;;;;;;;22.90;34.90;;;;;;1574151;74;1215;-66
2021/03/30 05:49:40;;;;;;;;;;;23.00;34.90;;;;;;1568630;74;802;-64
2021/03/30 05:51:42;;;;;;;;;;;22.90;34.90;;;;;;1573178;74;759;-67
2021/03/30 05:53:46;;;;;;;;;;;23.00;35.00;;;;;;1573287;74;793;-68
2021/03/30 05:55:52;;;;;;;;;;;23.00;34.90;;;;;;1576765;74;1600;-67
2021/03/30 05:57:52;;;;;;;;;;;22.90;34.90;;;;;;1570721;74;1549;-65
2021/03/30 05:59:56;;;;;;;;;;;22.90;34.80;;;;;;1575729;74;658;-63
2021/03/30 06:01:57;;;;;;;;;;;23.00;34.50;;;;;;1575831;74;1551;-64
2021/03/30 06:04:02;;;;;;;;;;;23.00;34.60;;;;;;1569410;74;765;-61
2021/03/30 06:06:04;;;;;;;;;;;23.00;34.90;;;;;;1572684;74;1943;-64
2021/03/30 06:08:06;;;;;;;;;;;23.00;35.20;;;;;;1575255;74;1111;-65
2021/03/30 06:10:12;;;;;;;;;;;23.10;35.20;;;;;;1582991;74;929;-61
2021/03/30 06:12:14;;;;;;;;;;;23.10;34.90;;;;;;1573969;74;780;-64
2021/03/30 06:14:16;;;;;;;;;;;23.10;34.60;;;;;;1563478;74;764;-62
2021/03/30 06:16:29;;;;;;;;;;;23.30;34.40;;;;;;1548578;75;768;-66
2021/03/30 06:18:31;;;;;;;;;;;23.20;34.10;;;;;;1570449;74;1171;-63
2021/03/30 06:20:34;;;;;;;;;;;23.30;34.00;;;;;;1573457;74;802;-63
2021/03/30 06:22:37;;;;;;;;;;;23.30;32.40;;;;;;1571224;74;752;-63
2021/03/30 06:24:39;;;;;;;;;;;23.10;30.00;;;;;;1566805;74;1942;-66
2021/03/30 06:26:41;;;;;;;;;;;23.10;29.60;;;;;;1574178;74;1269;-62
2021/03/30 06:28:43;;;;;;;;;;;23.00;28.40;;;;;;1574800;74;630;-62
2021/03/30 06:30:55;;;;;;;;;;;22.90;28.40;;;;;;1563790;74;781;-63
2021/03/30 06:32:57;;;;;;;;;;;22.90;28.20;;;;;;1564462;74;730;-63
2021/03/30 06:35:12;;;;;;;;;;;22.90;28.10;;;;;;1575513;74;747;-63
2021/03/30 06:37:30;;;;;;;;;;;22.80;27.40;;;;;;1572502;74;1239;-63
2021/03/30 06:39:34;;;;;;;;;;;22.70;27.70;;;;;;1581212;74;765;-63
2021/03/30 06:46:06;;;;;;;;;;;22.60;26.80;;;;;;1569680;74;1950;-62
2021/03/30 06:48:08;;;;;;;;;;;22.60;26.60;;;;;;1570729;74;1259;-63
2021/03/30 06:50:12;;;;;;;;;;;22.50;26.60;;;;;;1542475;75;762;-63
2021/03/30 06:52:14;;;;;;;;;;;22.50;26.50;;;;;;1559998;74;1116;-62
2021/03/30 06:54:16;;;;;;;;;;;22.50;26.40;;;;;;1568944;74;650;-62
2021/03/30 06:56:18;;;;;;;;;;;22.40;25.90;;;;;;1573671;74;790;-64
2021/03/30 06:58:22;;;;;;;;;;;22.40;25.90;;;;;;1564841;74;1110;-62
2021/03/30 07:00:28;;;;;;;;;;;22.30;25.60;;;;;;1571500;74;1626;-63
2021/03/30 07:02:31;;;;;;;;;;;22.30;25.60;;;;;;1576769;74;749;-64
2021/03/30 07:04:32;;;;;;;;;;;22.10;25.30;;;;;;1572380;74;1938;-64
2021/03/30 07:06:34;;;;;;;;;;;22.10;25.20;;;;;;1573713;74;1176;-63
2021/03/30 07:08:36;;;;;;;;;;;22.00;25.20;;;;;;1575333;74;701;-63
2021/03/30 07:10:39;;;;;;;;;;;22.10;25.50;;;;;;1573471;74;757;-62
2021/03/30 07:12:41;;;;;;;;;;;22.20;25.50;;;;;;1576117;74;757;-64
2021/03/30 07:14:43;;;;;;;;;;;22.30;25.80;;;;;;1574021;74;754;-63
2021/03/30 07:16:52;;;;;;;;;;;22.40;25.70;;;;;;1573413;74;1156;-63
2021/03/30 07:18:56;;;;;;;;;;;22.50;25.20;;;;;;1580083;74;1035;-63
2021/03/30 07:21:05;;;;;;;;;;;22.50;25.00;;;;;;1571176;74;1540;-63
2021/03/30 07:23:08;;;;;;;;;;;22.70;25.30;;;;;;1570025;74;809;-63
2021/03/30 07:25:10;;;;;;;;;;;22.70;25.50;;;;;;1576260;74;1946;-65
2021/03/30 07:27:14;;;;;;;;;;;22.80;25.40;;;;;;1569614;74;1179;-63
2021/03/30 07:29:16;;;;;;;;;;;22.90;25.00;;;;;;1572204;74;975;-61
2021/03/30 07:31:35;;;;;;;;;;;22.90;24.00;;;;;;1571526;74;766;-63
2021/03/30 07:33:38;;;;;;;;;;;22.90;24.20;;;;;;1572112;74;1476;-63
2021/03/30 07:35:40;;;;;;;;;;;22.90;24.20;;;;;;1569998;74;710;-63
2021/03/30 07:37:52;;;;;;;;;;;22.90;23.90;;;;;;1574485;74;1140;-63
2021/03/30 07:39:55;;;;;;;;;;;22.90;23.50;;;;;;1576218;74;1078;-62
2021/03/30 07:41:57;;;;;;;;;;;22.90;22.80;;;;;;1566799;74;788;-64
2021/03/30 07:44:02;;;;;;;;;;;22.80;23.10;;;;;;1579333;74;883;-63
2021/03/30 07:46:04;;;;;;;;;;;22.80;23.60;;;;;;1581326;74;1930;-63
2021/03/30 07:48:06;;;;;;;;;;;22.80;23.50;;;;;;1554967;74;1205;-63
2021/03/30 07:50:08;;;;;;;;;;;22.90;24.10;;;;;;1570636;74;703;-62
2021/03/30 07:52:24;;;;;;;;;;;22.90;24.10;;;;;;1564296;74;737;-64
2021/03/30 07:54:26;;;;;;;;;;;22.90;23.90;;;;;;1570235;74;785;-63
2021/03/30 07:56:29;;;;;;;;;;;23.00;23.60;;;;;;1571709;74;678;-64
2021/03/30 07:58:38;;;;;;;;;;;22.90;23.40;;;;;;1567777;74;1081;-64
2021/03/30 08:00:41;;;;;;;;;;;22.90;23.20;;;;;;1573111;74;814;-63
2021/03/30 08:02:46;;;;;;;;;;;22.90;23.60;;;;;;1574296;74;767;-62
2021/03/30 08:05:05;;;;;;;;;;;23.00;23.60;;;;;;1571545;74;1606;-64
2021/03/30 08:07:06;;;;;;;;;;;23.00;23.40;;;;;;1574869;74;1192;-64
2021/03/30 08:09:10;;;;;;;;;;;23.00;23.30;;;;;;1573200;74;770;-64
2021/03/30 08:11:12;;;;;;;;;;;23.00;23.60;;;;;;1552687;74;732;-63
2021/03/30 08:13:23;;;;;;;;;;;23.00;23.60;;;;;;1559472;74;709;-63
2021/03/30 08:15:27;;;;;;;;;;;22.90;23.70;;;;;;1552517;74;754;-63
2021/03/30 08:17:29;;;;;;;;;;;22.90;24.20;;;;;;1548750;74;1604;-65
2021/03/30 08:19:31;;;;;;;;;;;23.00;24.30;;;;;;1557600;74;676;-64
2021/03/30 08:21:52;;;;;;;;;;;23.00;24.30;;;;;;1560059;74;806;-64
2021/03/30 08:23:56;;;;;;;;;;;23.00;24.20;;;;;;1558290;74;1717;-65
2021/03/30 08:26:18;;;;;;;;;;;23.00;24.00;;;;;;1564064;74;1929;-63
2021/03/30 08:28:38;;;;;;;;;;;23.00;23.60;;;;;;1565059;74;1648;-64
2021/03/30 08:30:44;;;;;;;;;;;23.00;24.20;;;;;;1555281;74;748;-63
2021/03/30 08:32:46;;;;;;;;;;;23.00;24.10;;;;;;1557019;74;769;-64
2021/03/30 08:34:48;;;;;;;;;;;23.10;23.90;;;;;;1554057;74;759;-63
2021/03/30 08:36:52;;;;;;;;;;;23.00;23.50;;;;;;1551993;74;1152;-64
2021/03/30 08:38:55;;;;;;;;;;;23.00;23.90;;;;;;1561420;74;1664;-63
2021/03/30 08:40:56;;;;;;;;;;;23.00;23.50;;;;;;1558280;74;761;-64
2021/03/30 08:42:58;;;;;;;;;;;23.00;23.60;;;;;;1563221;74;762;-64
2021/03/30 08:45:02;;;;;;;;;;;23.00;23.70;;;;;;1563320;74;746;-63
2021/03/30 08:47:04;;;;;;;;;;;23.10;23.70;;;;;;1565701;74;1149;-64
2021/03/30 08:49:08;;;;;;;;;;;23.10;23.70;;;;;;1565544;74;766;-63
2021/03/30 08:51:11;;;;;;;;;;;23.20;23.90;;;;;;1557822;74;1246;-64
2021/03/30 08:53:15;;;;;;;;;;;23.30;24.30;;;;;;1564904;74;1178;-64
2021/03/30 08:55:18;;;;;;;;;;;23.40;24.60;;;;;;1569610;74;1761;-62
2021/03/30 08:57:22;;;;;;;;;;;23.30;24.20;;;;;;1572428;74;1165;-63
2021/03/30 08:59:24;;;;;;;;;;;23.30;23.90;;;;;;1563892;74;1129;-63
2021/03/30 09:01:26;;;;;;;;;;;23.40;23.90;;;;;;1577389;74;779;-64
2021/03/30 09:03:28;;;;;;;;;;;23.30;23.60;;;;;;1573485;74;768;-63
2021/03/30 09:05:32;;;;;;;;;;;23.40;23.50;;;;;;1568071;74;1942;-63
2021/03/30 09:07:46;;;;;;;;;;;23.40;23.80;;;;;;1558421;74;1196;-64
2021/03/30 09:09:48;;;;;;;;;;;23.50;24.00;;;;;;1561029;74;745;-65
2021/03/30 09:11:50;;;;;;;;;;;23.50;24.30;;;;;;1558521;74;751;-63
2021/03/30 09:13:58;;;;;;;;;;;23.50;24.10;;;;;;1567181;74;764;-63
2021/03/30 09:16:02;;;;;;;;;;;23.60;24.10;;;;;;1573861;74;744;-63
2021/03/30 09:18:04;;;;;;;;;;;23.60;24.00;;;;;;1562398;74;1523;-63
2021/03/30 09:20:06;;;;;;;;;;;23.60;23.70;;;;;;1567796;74;757;-63
2021/03/30 09:22:17;;;;;;;;;;;23.50;23.10;;;;;;1560746;74;751;-63
2021/03/30 09:24:21;;;;;;;;;;;23.50;23.20;;;;;;1565141;74;1581;-64
2021/03/30 09:26:26;;;;;;;;;;;23.50;23.70;;;;;;1564845;74;1970;-64
2021/03/30 09:28:23;;;;;;;;;;;23.50;23.50;;;;;;1575335;74;1538;-64
2021/03/30 09:30:25;;;;;;;;;;;23.40;22.00;;;;;;1584181;74;671;-63
2021/03/30 09:32:28;;;;;;;;;;;23.50;22.30;;;;;;1567663;74;759;-63
2021/03/30 09:34:30;;;;;;;;;;;23.50;23.00;;;;;;1567971;74;675;-62
2021/03/30 09:36:33;;;;;;;;;;;23.40;22.10;;;;;;1567124;74;748;-63
2021/03/30 09:38:57;;;;;;;;;;;23.50;22.60;;;;;;1570573;74;1686;-63
2021/03/30 09:40:58;;;;;;;;;;;23.50;23.00;;;;;;1566466;74;1356;-63
2021/03/30 09:43:00;;;;;;;;;;;23.40;22.00;;;;;;1571757;74;766;-62
2021/03/30 09:45:02;;;;;;;;;;;23.40;22.30;;;;;;1570696;74;760;-64
2021/03/30 09:47:23;;;;;;;;;;;23.40;22.60;;;;;;1560253;74;1933;-64
2021/03/30 09:49:25;;;;;;;;;;;23.50;22.70;;;;;;1587027;74;682;-63
2021/03/30 09:51:27;;;;;;;;;;;23.30;22.80;;;;;;1588172;73;754;-64
2021/03/30 09:53:42;;;;;;;;;;;23.40;23.10;;;;;;1588579;74;795;-63
2021/03/30 09:55:45;;;;;;;;;;;23.30;22.60;;;;;;1588781;74;795;-64
2021/03/30 09:57:47;;;;;;;;;;;23.30;22.60;;;;;;1549263;75;1242;-65
2021/03/30 09:59:49;;;;;;;;;;;23.30;21.70;;;;;;1510267;77;759;-63
2021/03/30 10:01:51;;;;;;;;;;;23.10;22.00;;;;;;1548107;76;734;-62
2021/03/30 10:03:53;;;;;;;;;;;22.90;21.70;;;;;;1535964;76;766;-65
2021/03/30 10:05:58;;;;;;;;;;;22.80;21.90;;;;;;1516000;77;1998;-67
2021/03/30 10:07:58;;;;;;;;;;;22.60;22.20;;;;;;1517524;77;1152;-63
2021/03/30 10:10:02;;;;;;;;;;;22.60;22.80;;;;;;1524335;77;728;-61
2021/03/30 10:12:06;;;;;;;;;;;22.50;22.70;;;;;;1513959;77;1335;-63
2021/03/30 10:14:18;;;;;;;;;;;22.50;23.10;;;;;;1534114;76;1768;-64
2021/03/30 10:16:20;;;;;;;;;;;22.70;23.40;;;;;;1579039;74;1080;-63
2021/03/30 10:18:23;;;;;;;;;;;22.70;23.20;;;;;;1574731;74;1136;-64
2021/03/30 10:20:25;;;;;;;;;;;22.80;22.70;;;;;;1584559;74;782;-63
2021/03/30 10:22:32;;;;;;;;;;;22.80;23.10;;;;;;1579901;74;757;-64
2021/03/30 10:24:34;;;;;;;;;;;22.80;22.70;;;;;;1582656;74;760;-63
2021/03/30 10:26:36;;;;;;;;;;;22.70;22.00;;;;;;1573302;74;1941;-63
2021/03/30 10:28:37;;;;;;;;;;;22.60;22.00;;;;;;1586290;74;1136;-63
2021/03/30 10:30:46;;;;;;;;;;;22.60;21.80;;;;;;1584396;74;763;-64
2021/03/30 10:32:48;;;;;;;;;;;22.60;22.10;;;;;;1575622;74;1484;-63
2021/03/30 10:34:49;;;;;;;;;;;22.60;22.60;;;;;;1575613;74;779;-65
2021/03/30 10:36:52;;;;;;;;;;;22.70;22.60;;;;;;1575763;75;749;-66
2021/03/30 10:39:07;;;;;;;;;;;22.70;23.40;;;;;;1567902;74;1141;-61
2021/03/30 10:41:10;;;;;;;;;;;22.50;23.10;;;;;;1574499;74;1533;-64
2021/03/30 10:43:21;;;;;;;;;;;22.60;22.40;;;;;;1577937;74;737;-64
2021/03/30 10:45:25;;;;;;;;;;;22.50;22.30;;;;;;1577796;74;802;-65
2021/03/30 10:47:31;;;;;;;;;;;22.50;22.90;;;;;;1565935;74;1955;-63
2021/03/30 10:49:33;;;;;;;;;;;22.50;22.50;;;;;;1575504;74;693;-63
2021/03/30 10:51:36;;;;;;;;;;;22.50;21.90;;;;;;1561258;75;783;-63
2021/03/30 10:53:38;;;;;;;;;;;22.40;21.90;;;;;;1579878;74;763;-63
2021/03/30 10:55:40;;;;;;;;;;;22.40;22.00;;;;;;1569328;75;720;-63
2021/03/30 10:57:43;;;;;;;;;;;22.30;21.70;;;;;;1575313;74;1176;-64
2021/03/30 10:59:45;;;;;;;;;;;22.40;22.30;;;;;;1572575;74;777;-62
2021/03/30 11:01:47;;;;;;;;;;;22.40;21.40;;;;;;1577405;74;825;-61
2021/03/30 11:03:49;;;;;;;;;;;22.30;21.60;;;;;;1562159;74;802;-63
2021/03/30 11:05:50;;;;;;;;;;;22.30;21.30;;;;;;1586430;74;1937;-63
2021/03/30 11:07:53;;;;;;;;;;;22.30;21.00;;;;;;1578855;74;1261;-63
2021/03/30 11:09:54;;;;;;;;;;;22.30;21.50;;;;;;1563782;74;750;-63
2021/03/30 11:11:56;;;;;;;;;;;22.20;21.30;;;;;;1575590;74;799;-63
2021/03/30 11:13:58;;;;;;;;;;;22.20;20.70;;;;;;1569506;74;785;-63
2021/03/30 11:16:00;;;;;;;;;;;22.20;21.50;;;;;;1571488;74;796;-62
2021/03/30 11:18:02;;;;;;;;;;;22.20;21.60;;;;;;1573711;74;1152;-62
2021/03/30 11:20:07;;;;;;;;;;;22.30;21.80;;;;;;1581460;75;768;-62
2021/03/30 11:22:10;;;;;;;;;;;22.20;20.70;;;;;;1557313;74;755;-67
2021/03/30 11:24:20;;;;;;;;;;;22.10;21.30;;;;;;1574816;74;745;-65
2021/03/30 11:26:21;;;;;;;;;;;22.00;20.60;;;;;;1562464;75;1961;-65
2021/03/30 11:28:24;;;;;;;;;;;22.10;22.20;;;;;;1577290;74;1170;-65
2021/03/30 11:30:35;;;;;;;;;;;22.10;21.50;;;;;;1580578;74;776;-65
2021/03/30 11:34:40;;;;;;;;;;;22.20;21.50;;;;;;1565144;74;679;-65
2021/03/30 11:36:40;;;;;;;;;;;22.20;20.70;;;;;;1565591;74;1130;-65
2021/03/30 11:38:42;;;;;;;;;;;22.00;20.60;;;;;;1572986;75;1172;-62
2021/03/30 11:40:44;;;;;;;;;;;22.10;20.20;;;;;;1576011;74;784;-65
2021/03/30 11:42:46;;;;;;;;;;;21.90;20.70;;;;;;1564941;74;774;-69
2021/03/30 11:44:48;;;;;;;;;;;22.00;20.80;;;;;;1569797;74;790;-63
2021/03/30 11:46:49;;;;;;;;;;;22.00;20.00;;;;;;1583480;74;1935;-64
2021/03/30 11:48:51;;;;;;;;;;;22.00;21.30;;;;;;1578963;74;1168;-64
2021/03/30 11:50:53;;;;;;;;;;;22.10;21.50;;;;;;1575688;74;732;-62
2021/03/30 11:52:55;;;;;;;;;;;22.00;20.00;;;;;;1565682;74;750;-63
2021/03/30 11:54:57;;;;;;;;;;;22.00;19.80;;;;;;1572996;74;722;-62
2021/03/30 11:56:59;;;;;;;;;;;21.90;20.20;;;;;;1568111;74;749;-63
2021/03/30 11:59:01;;;;;;;;;;;21.90;19.80;;;;;;1581756;74;728;-59
2021/03/30 12:01:03;;;;;;;;;;;21.90;19.80;;;;;;1580669;74;991;-63
2021/03/30 12:03:04;;;;;;;;;;;21.90;19.50;;;;;;1572502;74;768;-63
2021/03/30 12:05:07;;;;;;;;;;;21.80;19.10;;;;;;1582812;74;785;-62
2021/03/30 12:07:09;;;;;;;;;;;21.70;19.80;;;;;;1582724;74;1945;-63
2021/03/30 12:09:11;;;;;;;;;;;21.90;20.40;;;;;;1573985;74;788;-63
2021/03/30 12:11:12;;;;;;;;;;;21.80;20.50;;;;;;1573279;74;746;-61
2021/03/30 12:13:14;;;;;;;;;;;21.90;20.00;;;;;;1593797;74;806;-62
2021/03/30 12:15:17;;;;;;;;;;;21.80;20.00;;;;;;1577775;74;756;-61
2021/03/30 12:17:19;;;;;;;;;;;21.80;21.30;;;;;;1567648;74;1198;-61
2021/03/30 12:19:21;;;;;;;;;;;21.90;20.30;;;;;;1577962;74;762;-63
2021/03/30 12:21:23;;;;;;;;;;;22.00;20.90;;;;;;1568356;74;741;-62
2021/03/30 12:23:25;;;;;;;;;;;21.90;20.40;;;;;;1570886;74;747;-62